createdAt,value
2019-03-04T00:01:12.161Z,98202.08
2019-03-04T00:03:44.664Z,98193.16
2019-03-04T00:06:17.045Z,98177.81
2019-03-04T00:08:49.455Z,98175.28
2019-03-04T00:11:21.819Z,98172.91
2019-03-04T00:13:54.237Z,98172.13
2019-03-04T00:16:26.607Z,98168.33
2019-03-04T00:18:59.082Z,98165.94
2019-03-04T00:21:31.545Z,98151.39
2019-03-04T00:24:03.957Z,98153.95
2019-03-04T00:26:36.340Z,98143.08
2019-03-04T00:29:08.740Z,98146.78
2019-03-04T00:31:41.110Z,98132.55
2019-03-04T00:34:13.515Z,98132.43
2019-03-04T00:36:45.887Z,98120.26
2019-03-04T00:39:20.423Z,98126.98
2019-03-04T00:41:52.798Z,98119.80
2019-03-04T00:44:25.280Z,98109.27
2019-03-04T00:46:57.569Z,98099.84
2019-03-04T00:49:29.967Z,98106.44
2019-03-04T00:52:02.373Z,98104.38
2019-03-04T00:54:34.780Z,98113.51
2019-03-04T00:57:07.443Z,98107.95
2019-03-04T00:59:39.837Z,98090.03
2019-03-04T01:02:12.150Z,98094.02
2019-03-04T01:04:44.548Z,98091.06
2019-03-04T01:07:16.929Z,98097.78
2019-03-04T01:09:49.333Z,98108.06
2019-03-04T01:12:21.658Z,98101.17
2019-03-04T01:14:54.819Z,98107.16
2019-03-04T01:17:27.254Z,98109.88
2019-03-04T01:19:59.632Z,98110.03
2019-03-04T01:22:32.028Z,98107.65
2019-03-04T01:25:05.427Z,98100.59
2019-03-04T01:27:37.869Z,98092.45
2019-03-04T01:30:14.366Z,98088.77
2019-03-04T01:32:46.742Z,98092.79
2019-03-04T01:35:19.195Z,98089.75
2019-03-04T01:37:51.578Z,98092.45
2019-03-04T01:40:24.037Z,98085.56
2019-03-04T01:42:56.443Z,98076.13
2019-03-04T01:45:28.896Z,98074.38
2019-03-04T01:48:01.293Z,98076.47
2019-03-04T01:50:33.714Z,98068.17
2019-03-04T01:53:06.107Z,98072.50
2019-03-04T01:55:38.507Z,98072.00
2019-03-04T01:58:10.931Z,98076.17
2019-03-04T02:00:43.326Z,98075.84
2019-03-04T02:03:15.856Z,98073.44
2019-03-04T02:05:48.177Z,98065.60
2019-03-04T02:08:20.549Z,98056.94
2019-03-04T02:10:52.948Z,98033.87
2019-03-04T02:13:25.323Z,98038.05
2019-03-04T02:15:57.750Z,98032.11
2019-03-04T02:18:30.230Z,98043.34
2019-03-04T02:21:02.682Z,98053.11
2019-03-04T02:23:35.095Z,98052.79
2019-03-04T02:26:23.817Z,98048.48
2019-03-04T02:28:56.650Z,98052.13
2019-03-04T02:31:29.045Z,98046.84
2019-03-04T02:34:01.458Z,98054.85
2019-03-04T02:36:33.954Z,98052.33
2019-03-04T02:39:06.804Z,98045.42
2019-03-04T02:41:40.021Z,98047.16
2019-03-04T02:44:12.392Z,98048.60
2019-03-04T02:46:44.801Z,98037.72
2019-03-04T02:49:17.192Z,98010.33
2019-03-04T02:51:49.697Z,98003.76
2019-03-04T02:54:22.182Z,98007.73
2019-03-04T02:56:57.811Z,97962.72
2019-03-04T02:59:30.270Z,97964.44
2019-03-04T03:02:04.680Z,97958.52
2019-03-04T03:04:37.730Z,97962.66
2019-03-04T03:07:10.603Z,97947.88
2019-03-04T03:09:43.203Z,97924.98
2019-03-04T03:12:15.620Z,97898.68
2019-03-04T03:14:50.353Z,97875.92
2019-03-04T03:17:24.311Z,97838.27
2019-03-04T03:19:56.778Z,97816.96
2019-03-04T03:22:29.171Z,97795.81
2019-03-04T03:25:01.556Z,97785.72
2019-03-04T03:27:34.106Z,97783.30
2019-03-04T03:30:08.935Z,97784.56
2019-03-04T03:32:41.441Z,97799.45
2019-03-04T03:35:14.923Z,97801.98
2019-03-04T03:37:47.285Z,97809.17
2019-03-04T03:40:19.639Z,97800.22
2019-03-04T03:42:52.026Z,97806.61
2019-03-04T03:45:24.412Z,97821.80
2019-03-04T03:47:56.812Z,97801.96
2019-03-04T03:50:29.210Z,97804.02
2019-03-04T03:53:01.617Z,97800.49
2019-03-04T03:55:34.006Z,97817.00
2019-03-04T03:58:06.487Z,97796.63
2019-03-04T04:00:38.864Z,97794.06
2019-03-04T04:03:11.259Z,97780.14
2019-03-04T04:05:43.674Z,97783.19
2019-03-04T04:08:16.069Z,97785.26
2019-03-04T04:10:48.535Z,97774.67
2019-03-04T04:13:21.035Z,97785.90
2019-03-04T04:15:53.580Z,97808.45
2019-03-04T04:18:25.986Z,97787.96
2019-03-04T04:20:58.432Z,97788.61
2019-03-04T04:23:30.836Z,97788.59
2019-03-04T04:26:04.865Z,97792.61
2019-03-04T04:28:37.261Z,97787.96
2019-03-04T04:31:09.646Z,97777.88
2019-03-04T04:33:42.062Z,97772.78
2019-03-04T04:36:14.433Z,97768.13
2019-03-04T04:38:46.819Z,97770.85
2019-03-04T04:41:19.208Z,97755.32
2019-03-04T04:43:51.652Z,97761.75
2019-03-04T04:46:48.615Z,97731.98
2019-03-04T04:49:21.382Z,97717.41
2019-03-04T04:51:53.791Z,97685.86
2019-03-04T04:54:26.188Z,97693.55
2019-03-04T04:56:58.560Z,97695.01
2019-03-04T04:59:30.954Z,97678.67
2019-03-04T05:02:03.324Z,97651.32
2019-03-04T05:04:35.723Z,97671.66
2019-03-04T05:07:08.034Z,97681.25
2019-03-04T05:09:40.364Z,97682.23
2019-03-04T05:12:13.018Z,97677.91
2019-03-04T05:14:45.425Z,97667.83
2019-03-04T05:17:17.871Z,97652.13
2019-03-04T05:19:52.602Z,97644.15
2019-03-04T05:22:24.970Z,97634.22
2019-03-04T05:24:57.380Z,97625.41
2019-03-04T05:27:29.751Z,97631.17
2019-03-04T05:30:02.151Z,97628.13
2019-03-04T05:32:34.590Z,97626.85
2019-03-04T05:35:07.092Z,97612.27
2019-03-04T05:37:39.463Z,97581.38
2019-03-04T05:40:14.893Z,97569.20
2019-03-04T05:42:47.263Z,97553.68
2019-03-04T05:45:19.675Z,97530.80
2019-03-04T05:47:52.049Z,97569.85
2019-03-04T05:50:24.448Z,97578.80
2019-03-04T05:52:56.816Z,97573.03
2019-03-04T05:55:29.209Z,97555.30
2019-03-04T05:58:01.577Z,97543.14
2019-03-04T06:00:38.878Z,97528.09
2019-03-04T06:03:12.378Z,97502.80
2019-03-04T06:05:44.866Z,97487.28
2019-03-04T06:08:17.243Z,97482.17
2019-03-04T06:10:49.653Z,97490.64
2019-03-04T06:13:22.050Z,97493.86
2019-03-04T06:15:54.439Z,97520.74
2019-03-04T06:18:26.911Z,97542.05
2019-03-04T06:20:59.243Z,97561.09
2019-03-04T06:23:31.687Z,97554.37
2019-03-04T06:26:04.122Z,97553.42
2019-03-04T06:28:36.611Z,97551.48
2019-03-04T06:31:09.017Z,97574.55
2019-03-04T06:33:41.407Z,97589.77
2019-03-04T06:36:13.812Z,97594.89
2019-03-04T06:38:46.204Z,97596.16
2019-03-04T06:41:18.608Z,97606.28
2019-03-04T06:43:51.022Z,97600.83
2019-03-04T06:46:23.358Z,97600.84
2019-03-04T06:48:55.738Z,97605.14
2019-03-04T06:51:40.535Z,97606.27
2019-03-04T06:55:14.826Z,97620.85
2019-03-04T06:57:51.339Z,97650.27
2019-03-04T07:00:56.569Z,97683.59
2019-03-04T07:03:39.679Z,97659.56
2019-03-04T07:06:12.141Z,97651.53
2019-03-04T07:09:10.308Z,97652.50
2019-03-04T07:11:53.693Z,97635.52
2019-03-04T07:14:27.151Z,97614.56
2019-03-04T07:16:59.663Z,97589.41
2019-03-04T07:19:35.422Z,97585.09
2019-03-04T07:22:11.165Z,97578.05
2019-03-04T07:24:43.710Z,97542.98
2019-03-04T07:27:16.112Z,97527.78
2019-03-04T07:29:48.500Z,97512.08
2019-03-04T07:32:20.890Z,97487.93
2019-03-04T07:34:53.283Z,97504.56
2019-03-04T07:37:25.688Z,97556.41
2019-03-04T07:39:58.073Z,97573.06
2019-03-04T07:42:31.316Z,97545.85
2019-03-04T07:45:03.847Z,97496.06
2019-03-04T07:47:36.252Z,97498.34
2019-03-04T07:50:08.826Z,97479.75
2019-03-04T07:52:41.172Z,97467.27
2019-03-04T07:55:13.579Z,97449.66
2019-03-04T07:57:45.995Z,97445.66
2019-03-04T08:00:18.379Z,97452.38
2019-03-04T08:02:50.780Z,97450.30
2019-03-04T08:05:23.149Z,97455.59
2019-03-04T08:07:55.658Z,97450.16
2019-03-04T08:11:13.702Z,97479.62
2019-03-04T08:13:52.463Z,97469.52
2019-03-04T08:16:25.908Z,97481.05
2019-03-04T08:18:58.317Z,97476.39
2019-03-04T08:21:30.737Z,97488.88
2019-03-04T08:24:03.141Z,97479.14
2019-03-04T08:26:35.515Z,97481.86
2019-03-04T08:29:08.003Z,97479.14
2019-03-04T08:31:40.381Z,97466.15
2019-03-04T08:34:12.780Z,97494.80
2019-03-04T08:36:45.172Z,97469.67
2019-03-04T08:39:18.454Z,97495.45
2019-03-04T08:41:50.832Z,97520.58
2019-03-04T08:44:23.246Z,97524.42
2019-03-04T08:46:55.629Z,97502.34
2019-03-04T08:49:29.103Z,97510.82
2019-03-04T08:52:01.498Z,97535.62
2019-03-04T08:54:33.998Z,97532.58
2019-03-04T08:57:06.375Z,97534.83
2019-03-04T08:59:38.840Z,97571.00
2019-03-04T09:02:11.217Z,97575.80
2019-03-04T09:04:43.619Z,97583.02
2019-03-04T09:07:16.009Z,97569.23
2019-03-04T09:09:48.402Z,97555.66
2019-03-04T09:12:20.786Z,97560.29
2019-03-04T09:14:53.262Z,97595.03
2019-03-04T09:17:26.759Z,97603.03
2019-03-04T09:20:00.322Z,97590.88
2019-03-04T09:22:32.673Z,97583.17
2019-03-04T09:25:06.702Z,97624.94
2019-03-04T09:27:39.146Z,97643.97
2019-03-04T09:30:12.159Z,97637.71
2019-03-04T09:32:44.470Z,97626.80
2019-03-04T09:35:16.947Z,97623.12
2019-03-04T09:37:49.384Z,97614.47
2019-03-04T09:40:21.810Z,97622.92
2019-03-04T09:42:54.289Z,97615.89
2019-03-04T09:45:26.725Z,97597.16
2019-03-04T09:47:59.047Z,97599.24
2019-03-04T09:50:31.559Z,97599.23
2019-03-04T09:53:04.140Z,97601.33
2019-03-04T09:55:36.536Z,97595.09
2019-03-04T09:58:08.919Z,97603.09
2019-03-04T10:01:27.087Z,97586.30
2019-03-04T10:04:43.119Z,97562.80
2019-03-04T10:08:05.035Z,97557.22
2019-03-04T10:11:06.820Z,97568.30
2019-03-04T10:14:07.743Z,97569.59
2019-03-04T10:17:36.879Z,97572.03
2019-03-04T10:20:58.298Z,97570.80
2019-03-04T10:24:32.744Z,97574.48
2019-03-04T10:27:36.134Z,97579.44
2019-03-04T10:30:57.538Z,97564.08
2019-03-04T10:34:21.650Z,97623.79
2019-03-04T10:37:47.171Z,97627.41
2019-03-04T10:41:20.230Z,97634.72
2019-03-04T10:44:37.926Z,97651.48
2019-03-04T10:47:10.658Z,97643.31
2019-03-04T10:49:43.038Z,97641.20
2019-03-04T10:52:15.403Z,97647.92
2019-03-04T10:54:47.783Z,97645.05
2019-03-04T10:57:20.193Z,97637.38
2019-03-04T10:59:52.568Z,97634.33
2019-03-04T11:02:25.007Z,97635.91
2019-03-04T11:04:59.062Z,97639.75
2019-03-04T11:07:31.452Z,97656.23
2019-03-04T11:10:03.847Z,97648.50
2019-03-04T11:12:36.330Z,97636.00
2019-03-04T11:15:21.607Z,97623.16
2019-03-04T11:17:54.539Z,97633.38
2019-03-04T11:20:27.103Z,97614.66
2019-03-04T11:22:59.588Z,97610.34
2019-03-04T11:25:33.010Z,97598.86
2019-03-04T11:28:05.409Z,97602.59
2019-03-04T11:30:37.879Z,97587.28
2019-03-04T11:33:10.283Z,97571.92
2019-03-04T11:35:42.665Z,97532.90
2019-03-04T11:38:41.746Z,97578.38
2019-03-04T11:41:20.459Z,97555.66
2019-03-04T11:43:53.004Z,97546.24
2019-03-04T11:46:25.464Z,97544.97
2019-03-04T11:48:57.850Z,97572.56
2019-03-04T11:51:30.270Z,97550.62
2019-03-04T11:54:02.659Z,97551.76
2019-03-04T11:56:35.128Z,97553.70
2019-03-04T11:59:07.532Z,97531.91
2019-03-04T12:01:43.091Z,97547.77
2019-03-04T12:04:15.476Z,97557.22
2019-03-04T12:06:48.955Z,97545.38
2019-03-04T12:09:21.402Z,97546.02
2019-03-04T12:11:53.798Z,97558.35
2019-03-04T12:14:26.252Z,97557.39
2019-03-04T12:16:58.730Z,97563.50
2019-03-04T12:19:31.224Z,97575.20
2019-03-04T12:22:03.627Z,97551.78
2019-03-04T12:24:36.067Z,97542.17
2019-03-04T12:27:08.470Z,97536.09
2019-03-04T12:29:40.842Z,97539.93
2019-03-04T12:32:25.120Z,97546.50
2019-03-04T12:34:57.500Z,97542.14
2019-03-04T12:37:29.910Z,97545.21
2019-03-04T12:40:02.354Z,97521.48
2019-03-04T12:42:36.428Z,97512.20
2019-03-04T12:45:14.841Z,97496.02
2019-03-04T12:47:47.319Z,97497.16
2019-03-04T12:50:22.882Z,97517.33
2019-03-04T12:52:55.455Z,97517.33
2019-03-04T12:55:27.829Z,97512.03
2019-03-04T12:58:00.227Z,97522.44
2019-03-04T13:00:32.714Z,97538.63
2019-03-04T13:03:05.115Z,97532.21
2019-03-04T13:05:37.559Z,97551.59
2019-03-04T13:08:10.199Z,97564.02
2019-03-04T13:10:42.594Z,97553.28
2019-03-04T13:13:15.064Z,97535.33
2019-03-04T13:15:48.962Z,97530.68
2019-03-04T13:18:21.381Z,97526.81
2019-03-04T13:20:53.767Z,97534.48
2019-03-04T13:23:26.164Z,97550.02
2019-03-04T13:25:58.547Z,97555.77
2019-03-04T13:28:30.966Z,97558.02
2019-03-04T13:31:05.699Z,97574.98
2019-03-04T13:33:37.609Z,97557.22
2019-03-04T13:36:12.076Z,97552.41
2019-03-04T13:38:44.508Z,97557.38
2019-03-04T13:41:16.870Z,97531.13
2019-03-04T13:43:49.304Z,97550.64
2019-03-04T13:46:21.681Z,97558.02
2019-03-04T13:48:55.689Z,97551.76
2019-03-04T13:51:28.265Z,97559.75
2019-03-04T13:54:00.685Z,97554.63
2019-03-04T13:56:33.050Z,97561.03
2019-03-04T13:59:05.516Z,97569.20
2019-03-04T14:01:37.890Z,97566.45
2019-03-04T14:04:10.295Z,97569.02
2019-03-04T14:06:42.668Z,97568.33
2019-03-04T14:09:19.911Z,97601.58
2019-03-04T14:11:52.293Z,97621.70
2019-03-04T14:14:24.700Z,97623.61
2019-03-04T14:16:57.205Z,97602.63
2019-03-04T14:19:30.647Z,97596.52
2019-03-04T14:22:04.166Z,97594.58
2019-03-04T14:24:36.541Z,97594.90
2019-03-04T14:27:08.957Z,97599.66
2019-03-04T14:29:41.287Z,97604.14
2019-03-04T14:32:13.713Z,97609.88
2019-03-04T14:34:46.109Z,97620.26
2019-03-04T14:37:18.472Z,97627.77
2019-03-04T14:39:50.864Z,97644.55
2019-03-04T14:42:23.232Z,97654.59
2019-03-04T14:44:55.728Z,97666.73
2019-03-04T14:47:28.124Z,97688.78
2019-03-04T14:50:09.611Z,97699.92
2019-03-04T14:52:35.725Z,97703.41
2019-03-04T14:55:11.616Z,97703.88
2019-03-04T14:57:44.147Z,97704.48
2019-03-04T15:00:20.824Z,97713.05
2019-03-04T15:02:53.200Z,97719.41
2019-03-04T15:05:26.005Z,97709.97
2019-03-04T15:07:58.380Z,97721.91
2019-03-04T15:10:30.774Z,97708.64
2019-03-04T15:13:03.330Z,97713.41
2019-03-04T15:15:35.771Z,97718.64
2019-03-04T15:18:08.096Z,97708.10
2019-03-04T15:20:40.731Z,97718.62
2019-03-04T15:23:13.195Z,97740.98
2019-03-04T15:25:45.586Z,97745.94
2019-03-04T15:28:20.317Z,97746.77
2019-03-04T15:30:56.036Z,97740.83
2019-03-04T15:33:28.504Z,97737.78
2019-03-04T15:36:00.901Z,97752.60
2019-03-04T15:38:33.301Z,97756.59
2019-03-04T15:41:05.756Z,97764.23
2019-03-04T15:43:38.207Z,97771.56
2019-03-04T15:46:10.542Z,97773.63
2019-03-04T15:48:42.923Z,97784.00
2019-03-04T15:51:15.260Z,97809.37
2019-03-04T15:53:47.641Z,97818.31
2019-03-04T15:56:20.052Z,97829.34
2019-03-04T15:58:52.441Z,97836.85
2019-03-04T16:01:24.770Z,97840.19
2019-03-04T16:03:57.169Z,97853.16
2019-03-04T16:06:29.554Z,97861.31
2019-03-04T16:09:02.034Z,97875.31
2019-03-04T16:11:36.048Z,97884.36
2019-03-04T16:14:08.495Z,97896.75
2019-03-04T16:16:41.158Z,97920.69
2019-03-04T16:19:13.580Z,97921.93
2019-03-04T16:21:45.981Z,97936.44
2019-03-04T16:24:18.358Z,97955.59
2019-03-04T16:26:50.758Z,97960.49
2019-03-04T16:29:24.110Z,97967.55
2019-03-04T16:31:56.502Z,97981.42
2019-03-04T16:34:28.875Z,97999.91
2019-03-04T16:37:06.899Z,97985.03
2019-03-04T16:39:39.283Z,98004.02
2019-03-04T16:42:11.679Z,98013.15
2019-03-04T16:44:44.066Z,98012.78
2019-03-04T16:47:16.572Z,98015.98
2019-03-04T16:49:49.023Z,98008.92
2019-03-04T16:52:24.581Z,98014.05
2019-03-04T16:54:57.450Z,98017.20
2019-03-04T16:57:29.940Z,98029.33
2019-03-04T17:00:02.777Z,98008.07
2019-03-04T17:02:36.892Z,98015.21
2019-03-04T17:05:11.804Z,98023.33
2019-03-04T17:07:44.278Z,98032.41
2019-03-04T17:10:17.165Z,98038.00
2019-03-04T17:12:49.553Z,98037.66
2019-03-04T17:15:22.053Z,98043.06
2019-03-04T17:17:54.535Z,98048.45
2019-03-04T17:20:27.015Z,98053.55
2019-03-04T17:22:59.513Z,98057.48
2019-03-04T17:25:31.882Z,98068.19
2019-03-04T17:28:04.290Z,98072.82
2019-03-04T17:30:37.264Z,98085.06
2019-03-04T17:33:09.670Z,98091.39
2019-03-04T17:35:42.133Z,98098.56
2019-03-04T17:38:15.588Z,98106.68
2019-03-04T17:40:47.961Z,98115.25
2019-03-04T17:43:20.432Z,98120.30
2019-03-04T17:45:52.876Z,98120.61
2019-03-04T17:48:25.372Z,98129.66
2019-03-04T17:50:58.862Z,98140.77
2019-03-04T17:53:31.288Z,98145.24
2019-03-04T17:56:03.667Z,98148.86
2019-03-04T17:58:36.132Z,98150.56
2019-03-04T18:01:08.503Z,98151.81
2019-03-04T18:03:40.981Z,98153.03
2019-03-04T18:06:13.366Z,98150.94
2019-03-04T18:08:45.835Z,98152.69
2019-03-04T18:11:18.192Z,98156.17
2019-03-04T18:13:50.525Z,98163.49
2019-03-04T18:16:22.900Z,98166.49
2019-03-04T18:18:55.375Z,98175.59
2019-03-04T18:21:28.037Z,98181.50
2019-03-04T18:24:00.449Z,98180.06
2019-03-04T18:26:48.921Z,98181.50
2019-03-04T18:30:24.684Z,98184.64
2019-03-04T18:33:52.778Z,98182.98
2019-03-04T18:36:43.776Z,98186.06
2019-03-04T18:40:08.091Z,98199.12
2019-03-04T18:43:45.340Z,98206.17
2019-03-04T18:47:17.729Z,98216.43
2019-03-04T18:49:50.209Z,98227.89
2019-03-04T18:52:22.708Z,98227.57
2019-03-04T18:54:55.117Z,98235.39
2019-03-04T18:57:27.591Z,98245.63
2019-03-04T18:59:59.988Z,98236.86
2019-03-04T19:02:32.382Z,98242.89
2019-03-04T19:05:05.087Z,98244.48
2019-03-04T19:07:38.133Z,98240.17
2019-03-04T19:10:11.006Z,98255.30
2019-03-04T19:12:43.392Z,98249.88
2019-03-04T19:15:15.980Z,98267.59
2019-03-04T19:17:48.437Z,98259.27
2019-03-04T19:20:22.850Z,98258.91
2019-03-04T19:22:55.226Z,98263.22
2019-03-04T19:25:27.697Z,98262.09
2019-03-04T19:28:00.088Z,98261.43
2019-03-04T19:30:32.504Z,98262.70
2019-03-04T19:33:04.943Z,98262.55
2019-03-04T19:35:37.352Z,98267.17
2019-03-04T19:38:09.792Z,98269.57
2019-03-04T19:40:42.807Z,98271.00
2019-03-04T19:43:15.173Z,98271.33
2019-03-04T19:45:47.587Z,98267.75
2019-03-04T19:48:20.144Z,98269.00
2019-03-04T19:50:52.640Z,98274.70
2019-03-04T19:53:25.060Z,98280.45
2019-03-04T19:55:57.539Z,98269.41
2019-03-04T19:58:29.919Z,98267.34
2019-03-04T20:01:02.397Z,98266.22
2019-03-04T20:03:34.845Z,98272.09
2019-03-04T20:06:07.501Z,98264.44
2019-03-04T20:08:39.958Z,98262.17
2019-03-04T20:11:12.557Z,98262.78
2019-03-04T20:13:45.014Z,98262.74
2019-03-04T20:16:17.677Z,98264.78
2019-03-04T20:18:50.105Z,98273.75
2019-03-04T20:21:22.682Z,98280.16
2019-03-04T20:23:55.210Z,98270.37
2019-03-04T20:26:27.609Z,98275.00
2019-03-04T20:28:59.993Z,98270.53
2019-03-04T20:31:32.455Z,98279.14
2019-03-04T20:34:06.029Z,98272.89
2019-03-04T20:36:38.517Z,98274.80
2019-03-04T20:39:14.976Z,98285.45
2019-03-04T20:41:47.463Z,98287.72
2019-03-04T20:44:19.915Z,98288.33
2019-03-04T20:46:52.328Z,98288.77
2019-03-04T20:49:24.716Z,98304.75
2019-03-04T20:51:57.129Z,98310.15
2019-03-04T20:54:29.511Z,98309.03
2019-03-04T20:57:02.916Z,98311.45
2019-03-04T20:59:35.360Z,98319.94
2019-03-04T21:02:07.825Z,98322.75
2019-03-04T21:04:40.395Z,98328.05
2019-03-04T21:07:12.737Z,98330.15
2019-03-04T21:09:45.118Z,98336.98
2019-03-04T21:12:18.465Z,98337.14
2019-03-04T21:14:51.150Z,98337.65
2019-03-04T21:17:23.620Z,98343.58
2019-03-04T21:19:56.077Z,98345.18
2019-03-04T21:22:28.551Z,98345.47
2019-03-04T21:25:01.002Z,98348.66
2019-03-04T21:27:34.664Z,98344.95
2019-03-04T21:31:05.699Z,98351.84
2019-03-04T21:34:42.132Z,98356.69
2019-03-04T21:37:24.911Z,98351.36
2019-03-04T21:39:59.839Z,98371.13
2019-03-04T21:43:04.490Z,98377.52
2019-03-04T21:46:13.314Z,98370.98
2019-03-04T21:48:54.793Z,98374.29
2019-03-04T21:52:49.329Z,98374.06
2019-03-04T21:56:07.518Z,98377.78
2019-03-04T21:58:40.083Z,98388.04
2019-03-04T22:01:37.835Z,98382.50
2019-03-04T22:04:10.312Z,98382.30
2019-03-04T22:06:43.055Z,98369.31
2019-03-04T22:09:16.535Z,98380.48
2019-03-04T22:11:48.991Z,98392.13
2019-03-04T22:14:22.566Z,98390.52
2019-03-04T22:16:55.033Z,98380.48
2019-03-04T22:19:27.531Z,98380.95
2019-03-04T22:21:59.882Z,98394.83
2019-03-04T22:24:32.435Z,98384.59
2019-03-04T22:27:04.940Z,98401.81
2019-03-04T22:29:37.278Z,98401.73
2019-03-04T22:32:09.656Z,98404.93
2019-03-04T22:34:42.120Z,98405.88
2019-03-04T22:37:14.502Z,98412.73
2019-03-04T22:39:46.912Z,98410.34
2019-03-04T22:42:19.276Z,98408.20
2019-03-04T22:44:51.668Z,98423.16
2019-03-04T22:47:24.066Z,98430.01
2019-03-04T22:49:56.531Z,98433.20
2019-03-04T22:52:28.941Z,98446.27
2019-03-04T22:55:01.430Z,98446.27
2019-03-04T22:57:33.838Z,98452.30
2019-03-04T23:01:16.657Z,98459.02
2019-03-04T23:03:50.733Z,98447.27
2019-03-04T23:06:26.779Z,98447.98
2019-03-04T23:08:59.232Z,98451.17
2019-03-04T23:11:31.866Z,98473.22
2019-03-04T23:14:11.564Z,98481.55
2019-03-04T23:16:43.963Z,98488.72
2019-03-04T23:19:16.346Z,98483.14
2019-03-04T23:21:48.860Z,98486.61
2019-03-04T23:24:21.676Z,98490.44
2019-03-04T23:26:54.087Z,98493.11
2019-03-04T23:29:26.579Z,98498.57
2019-03-04T23:31:58.975Z,98497.13
2019-03-04T23:34:31.353Z,98500.36
2019-03-04T23:37:03.752Z,98502.72
2019-03-04T23:39:36.162Z,98504.87
2019-03-04T23:42:08.582Z,98499.16
2019-03-04T23:44:41.015Z,98493.14
2019-03-04T23:47:13.406Z,98494.58
2019-03-04T23:49:46.861Z,98488.23
2019-03-04T23:52:19.220Z,98495.30
2019-03-04T23:54:51.605Z,98484.77
2019-03-04T23:57:24.006Z,98485.60
2019-03-04T23:59:56.387Z,98490.27
